sensor_id;sensor_type;location;lat;lon;timestamp;P1;durP1;ratioP1;P2;durP2;ratioP2
13445;SDS011;6795;51.232;3.764;2024-03-08T00:01:45;41.35;;;31.08;;
13445;SDS011;6795;51.232;3.764;2024-03-08T00:04:14;44.40;;;31.02;;
13445;SDS011;6795;51.232;3.764;2024-03-08T00:06:42;45.85;;;31.00;;
13445;SDS011;6795;51.232;3.764;2024-03-08T00:09:12;42.53;;;31.88;;
13445;SDS011;6795;51.232;3.764;2024-03-08T00:11:43;43.83;;;31.38;;
13445;SDS011;6795;51.232;3.764;2024-03-08T00:14:13;49.88;;;31.77;;
13445;SDS011;6795;51.232;3.764;2024-03-08T00:16:41;49.50;;;31.50;;
13445;SDS011;6795;51.232;3.764;2024-03-08T00:19:10;53.80;;;31.90;;
13445;SDS011;6795;51.232;3.764;2024-03-08T00:21:39;49.35;;;34.53;;
13445;SDS011;6795;51.232;3.764;2024-03-08T00:24:08;51.63;;;33.60;;
13445;SDS011;6795;51.232;3.764;2024-03-08T00:26:36;55.80;;;34.58;;
13445;SDS011;6795;51.232;3.764;2024-03-08T00:29:07;52.25;;;33.88;;
13445;SDS011;6795;51.232;3.764;2024-03-08T00:31:35;50.08;;;33.28;;
13445;SDS011;6795;51.232;3.764;2024-03-08T00:34:04;54.72;;;34.92;;
13445;SDS011;6795;51.232;3.764;2024-03-08T00:36:33;51.25;;;34.42;;
13445;SDS011;6795;51.232;3.764;2024-03-08T00:39:02;54.75;;;34.78;;
13445;SDS011;6795;51.232;3.764;2024-03-08T00:41:33;53.78;;;35.72;;
13445;SDS011;6795;51.232;3.764;2024-03-08T00:44:02;52.90;;;35.20;;
13445;SDS011;6795;51.232;3.764;2024-03-08T00:46:32;52.85;;;35.70;;
13445;SDS011;6795;51.232;3.764;2024-03-08T00:49:01;54.85;;;35.33;;
13445;SDS011;6795;51.232;3.764;2024-03-08T00:51:30;56.30;;;35.28;;
13445;SDS011;6795;51.232;3.764;2024-03-08T00:53:59;57.45;;;35.90;;
13445;SDS011;6795;51.232;3.764;2024-03-08T00:56:28;57.00;;;37.08;;
13445;SDS011;6795;51.232;3.764;2024-03-08T00:58:57;59.78;;;36.70;;
13445;SDS011;6795;51.232;3.764;2024-03-08T01:01:26;56.20;;;38.17;;
13445;SDS011;6795;51.232;3.764;2024-03-08T01:03:56;55.65;;;36.47;;
13445;SDS011;6795;51.232;3.764;2024-03-08T01:06:25;58.97;;;36.70;;
13445;SDS011;6795;51.232;3.764;2024-03-08T01:08:54;57.80;;;36.75;;
13445;SDS011;6795;51.232;3.764;2024-03-08T01:11:23;59.15;;;36.90;;
13445;SDS011;6795;51.232;3.764;2024-03-08T01:13:52;58.97;;;37.58;;
13445;SDS011;6795;51.232;3.764;2024-03-08T01:16:21;58.10;;;35.85;;
13445;SDS011;6795;51.232;3.764;2024-03-08T01:18:49;57.28;;;36.13;;
13445;SDS011;6795;51.232;3.764;2024-03-08T01:21:20;60.10;;;38.45;;
13445;SDS011;6795;51.232;3.764;2024-03-08T01:23:48;59.60;;;38.05;;
13445;SDS011;6795;51.232;3.764;2024-03-08T01:26:17;63.10;;;39.20;;
13445;SDS011;6795;51.232;3.764;2024-03-08T01:28:46;56.60;;;37.15;;
13445;SDS011;6795;51.232;3.764;2024-03-08T01:31:15;63.97;;;38.58;;
13445;SDS011;6795;51.232;3.764;2024-03-08T01:33:43;57.15;;;36.47;;
13445;SDS011;6795;51.232;3.764;2024-03-08T01:36:12;65.38;;;38.80;;
13445;SDS011;6795;51.232;3.764;2024-03-08T01:38:43;61.33;;;38.08;;
13445;SDS011;6795;51.232;3.764;2024-03-08T01:41:12;61.17;;;39.22;;
13445;SDS011;6795;51.232;3.764;2024-03-08T01:43:42;59.70;;;38.72;;
13445;SDS011;6795;51.232;3.764;2024-03-08T01:46:12;59.92;;;38.60;;
13445;SDS011;6795;51.232;3.764;2024-03-08T01:48:42;59.60;;;38.13;;
13445;SDS011;6795;51.232;3.764;2024-03-08T01:51:12;56.70;;;37.00;;
13445;SDS011;6795;51.232;3.764;2024-03-08T01:53:42;58.22;;;37.90;;
13445;SDS011;6795;51.232;3.764;2024-03-08T01:56:13;55.65;;;38.13;;
13445;SDS011;6795;51.232;3.764;2024-03-08T01:58:42;63.42;;;39.17;;
13445;SDS011;6795;51.232;3.764;2024-03-08T02:01:11;56.15;;;37.15;;
13445;SDS011;6795;51.232;3.764;2024-03-08T02:03:41;55.03;;;38.13;;
13445;SDS011;6795;51.232;3.764;2024-03-08T02:06:12;55.15;;;36.85;;
13445;SDS011;6795;51.232;3.764;2024-03-08T02:08:44;54.63;;;36.42;;
13445;SDS011;6795;51.232;3.764;2024-03-08T02:11:13;53.97;;;36.67;;
13445;SDS011;6795;51.232;3.764;2024-03-08T02:13:42;52.15;;;33.88;;
13445;SDS011;6795;51.232;3.764;2024-03-08T02:16:11;49.38;;;34.35;;
13445;SDS011;6795;51.232;3.764;2024-03-08T02:18:40;53.30;;;35.63;;
13445;SDS011;6795;51.232;3.764;2024-03-08T02:21:10;52.47;;;35.45;;
13445;SDS011;6795;51.232;3.764;2024-03-08T02:23:39;49.30;;;34.72;;
13445;SDS011;6795;51.232;3.764;2024-03-08T02:26:08;48.50;;;34.22;;
13445;SDS011;6795;51.232;3.764;2024-03-08T02:28:37;48.83;;;34.00;;
13445;SDS011;6795;51.232;3.764;2024-03-08T02:31:06;43.55;;;31.42;;
13445;SDS011;6795;51.232;3.764;2024-03-08T02:33:35;46.92;;;30.65;;
13445;SDS011;6795;51.232;3.764;2024-03-08T02:36:04;45.40;;;32.30;;
13445;SDS011;6795;51.232;3.764;2024-03-08T02:38:35;43.33;;;31.52;;
13445;SDS011;6795;51.232;3.764;2024-03-08T02:41:04;41.00;;;30.77;;
13445;SDS011;6795;51.232;3.764;2024-03-08T02:43:33;40.00;;;31.25;;
13445;SDS011;6795;51.232;3.764;2024-03-08T02:46:02;40.50;;;31.80;;
13445;SDS011;6795;51.232;3.764;2024-03-08T02:48:32;44.28;;;31.48;;
13445;SDS011;6795;51.232;3.764;2024-03-08T02:51:00;36.90;;;28.75;;
13445;SDS011;6795;51.232;3.764;2024-03-08T02:53:30;41.50;;;30.83;;
13445;SDS011;6795;51.232;3.764;2024-03-08T02:56:00;39.25;;;30.60;;
13445;SDS011;6795;51.232;3.764;2024-03-08T02:58:30;38.67;;;29.40;;
13445;SDS011;6795;51.232;3.764;2024-03-08T03:00:58;41.33;;;29.40;;
13445;SDS011;6795;51.232;3.764;2024-03-08T03:03:27;37.88;;;30.48;;
13445;SDS011;6795;51.232;3.764;2024-03-08T03:05:56;37.25;;;29.40;;
13445;SDS011;6795;51.232;3.764;2024-03-08T03:08:24;32.88;;;28.13;;
13445;SDS011;6795;51.232;3.764;2024-03-08T03:10:53;36.77;;;29.43;;
13445;SDS011;6795;51.232;3.764;2024-03-08T03:13:24;38.83;;;29.20;;
13445;SDS011;6795;51.232;3.764;2024-03-08T03:15:53;35.38;;;28.08;;
13445;SDS011;6795;51.232;3.764;2024-03-08T03:18:24;33.30;;;28.42;;
13445;SDS011;6795;51.232;3.764;2024-03-08T03:20:54;34.25;;;27.25;;
13445;SDS011;6795;51.232;3.764;2024-03-08T03:23:22;36.58;;;28.58;;
13445;SDS011;6795;51.232;3.764;2024-03-08T03:25:53;35.28;;;28.08;;
13445;SDS011;6795;51.232;3.764;2024-03-08T03:28:25;31.35;;;26.20;;
13445;SDS011;6795;51.232;3.764;2024-03-08T03:30:54;30.92;;;25.80;;
13445;SDS011;6795;51.232;3.764;2024-03-08T03:33:25;29.55;;;24.50;;
13445;SDS011;6795;51.232;3.764;2024-03-08T03:35:54;29.10;;;24.10;;
13445;SDS011;6795;51.232;3.764;2024-03-08T03:38:23;30.38;;;24.90;;
13445;SDS011;6795;51.232;3.764;2024-03-08T03:40:54;27.75;;;24.20;;
13445;SDS011;6795;51.232;3.764;2024-03-08T03:43:32;30.33;;;25.17;;
13445;SDS011;6795;51.232;3.764;2024-03-08T03:46:01;29.60;;;25.42;;
13445;SDS011;6795;51.232;3.764;2024-03-08T03:48:29;29.00;;;25.63;;
13445;SDS011;6795;51.232;3.764;2024-03-08T03:50:58;31.33;;;25.73;;
13445;SDS011;6795;51.232;3.764;2024-03-08T03:53:27;31.17;;;25.20;;
13445;SDS011;6795;51.232;3.764;2024-03-08T03:55:56;31.70;;;25.52;;
13445;SDS011;6795;51.232;3.764;2024-03-08T03:58:26;30.48;;;23.90;;
13445;SDS011;6795;51.232;3.764;2024-03-08T04:00:56;27.92;;;24.63;;
13445;SDS011;6795;51.232;3.764;2024-03-08T04:03:24;28.63;;;24.48;;
13445;SDS011;6795;51.232;3.764;2024-03-08T04:05:53;30.05;;;24.38;;
13445;SDS011;6795;51.232;3.764;2024-03-08T04:08:22;27.90;;;23.00;;
13445;SDS011;6795;51.232;3.764;2024-03-08T04:10:51;29.30;;;25.15;;
13445;SDS011;6795;51.232;3.764;2024-03-08T04:13:20;26.92;;;23.95;;
13445;SDS011;6795;51.232;3.764;2024-03-08T04:15:49;27.33;;;23.63;;
13445;SDS011;6795;51.232;3.764;2024-03-08T04:18:19;29.35;;;24.45;;
13445;SDS011;6795;51.232;3.764;2024-03-08T04:20:48;26.98;;;24.17;;
13445;SDS011;6795;51.232;3.764;2024-03-08T04:23:16;30.02;;;24.30;;
13445;SDS011;6795;51.232;3.764;2024-03-08T04:25:45;28.13;;;25.13;;
13445;SDS011;6795;51.232;3.764;2024-03-08T04:28:14;30.35;;;25.52;;
13445;SDS011;6795;51.232;3.764;2024-03-08T04:30:43;27.02;;;23.75;;
13445;SDS011;6795;51.232;3.764;2024-03-08T04:36:12;29.67;;;24.50;;
13445;SDS011;6795;51.232;3.764;2024-03-08T04:38:41;26.10;;;23.40;;
13445;SDS011;6795;51.232;3.764;2024-03-08T04:41:10;29.00;;;24.25;;
13445;SDS011;6795;51.232;3.764;2024-03-08T04:43:39;31.05;;;24.42;;
13445;SDS011;6795;51.232;3.764;2024-03-08T04:46:07;27.80;;;24.40;;
13445;SDS011;6795;51.232;3.764;2024-03-08T04:48:36;28.33;;;24.52;;
13445;SDS011;6795;51.232;3.764;2024-03-08T04:51:05;27.30;;;24.45;;
13445;SDS011;6795;51.232;3.764;2024-03-08T04:53:35;25.95;;;22.80;;
13445;SDS011;6795;51.232;3.764;2024-03-08T04:56:05;31.83;;;24.35;;
13445;SDS011;6795;51.232;3.764;2024-03-08T04:58:35;27.88;;;23.90;;
13445;SDS011;6795;51.232;3.764;2024-03-08T05:01:04;26.90;;;23.92;;
13445;SDS011;6795;51.232;3.764;2024-03-08T05:03:32;27.15;;;23.55;;
13445;SDS011;6795;51.232;3.764;2024-03-08T05:06:01;27.45;;;24.60;;
13445;SDS011;6795;51.232;3.764;2024-03-08T05:08:30;26.90;;;23.27;;
13445;SDS011;6795;51.232;3.764;2024-03-08T05:11:02;27.67;;;23.95;;
13445;SDS011;6795;51.232;3.764;2024-03-08T05:13:33;29.52;;;25.60;;
13445;SDS011;6795;51.232;3.764;2024-03-08T05:16:02;26.27;;;22.92;;
13445;SDS011;6795;51.232;3.764;2024-03-08T05:18:31;28.88;;;25.48;;
13445;SDS011;6795;51.232;3.764;2024-03-08T05:21:00;29.73;;;24.52;;
13445;SDS011;6795;51.232;3.764;2024-03-08T05:23:30;29.10;;;24.80;;
13445;SDS011;6795;51.232;3.764;2024-03-08T05:26:00;33.08;;;25.80;;
13445;SDS011;6795;51.232;3.764;2024-03-08T05:28:30;28.88;;;25.77;;
13445;SDS011;6795;51.232;3.764;2024-03-08T05:30:58;27.90;;;25.00;;
13445;SDS011;6795;51.232;3.764;2024-03-08T05:33:27;28.73;;;25.73;;
13445;SDS011;6795;51.232;3.764;2024-03-08T05:35:56;31.27;;;24.35;;
13445;SDS011;6795;51.232;3.764;2024-03-08T05:38:26;26.75;;;23.85;;
13445;SDS011;6795;51.232;3.764;2024-03-08T05:40:54;28.77;;;25.55;;
13445;SDS011;6795;51.232;3.764;2024-03-08T05:43:23;26.88;;;23.67;;
13445;SDS011;6795;51.232;3.764;2024-03-08T05:45:53;27.65;;;23.58;;
13445;SDS011;6795;51.232;3.764;2024-03-08T05:48:22;26.67;;;23.73;;
13445;SDS011;6795;51.232;3.764;2024-03-08T05:50:52;28.27;;;24.50;;
13445;SDS011;6795;51.232;3.764;2024-03-08T05:53:20;27.63;;;23.65;;
13445;SDS011;6795;51.232;3.764;2024-03-08T05:55:49;26.55;;;23.75;;
13445;SDS011;6795;51.232;3.764;2024-03-08T05:58:18;27.50;;;24.35;;
13445;SDS011;6795;51.232;3.764;2024-03-08T06:00:46;28.65;;;25.55;;
13445;SDS011;6795;51.232;3.764;2024-03-08T06:03:20;30.00;;;25.50;;
13445;SDS011;6795;51.232;3.764;2024-03-08T06:05:50;27.53;;;24.63;;
13445;SDS011;6795;51.232;3.764;2024-03-08T06:08:19;30.15;;;25.75;;
13445;SDS011;6795;51.232;3.764;2024-03-08T06:10:47;33.15;;;26.23;;
13445;SDS011;6795;51.232;3.764;2024-03-08T06:13:19;31.60;;;26.08;;
13445;SDS011;6795;51.232;3.764;2024-03-08T06:15:48;28.65;;;25.55;;
13445;SDS011;6795;51.232;3.764;2024-03-08T06:18:19;28.15;;;25.25;;
13445;SDS011;6795;51.232;3.764;2024-03-08T06:20:49;29.38;;;25.58;;
13445;SDS011;6795;51.232;3.764;2024-03-08T06:23:20;28.10;;;25.02;;
13445;SDS011;6795;51.232;3.764;2024-03-08T06:25:48;28.27;;;24.83;;
13445;SDS011;6795;51.232;3.764;2024-03-08T06:28:17;30.42;;;25.65;;
13445;SDS011;6795;51.232;3.764;2024-03-08T06:30:45;29.45;;;26.25;;
13445;SDS011;6795;51.232;3.764;2024-03-08T06:33:14;31.13;;;24.77;;
13445;SDS011;6795;51.232;3.764;2024-03-08T06:35:44;30.10;;;25.27;;
13445;SDS011;6795;51.232;3.764;2024-03-08T06:38:13;29.85;;;25.88;;
13445;SDS011;6795;51.232;3.764;2024-03-08T06:40:43;29.10;;;24.60;;
13445;SDS011;6795;51.232;3.764;2024-03-08T06:43:14;31.42;;;25.88;;
13445;SDS011;6795;51.232;3.764;2024-03-08T06:45:43;31.60;;;25.92;;
13445;SDS011;6795;51.232;3.764;2024-03-08T06:48:15;28.25;;;25.20;;
13445;SDS011;6795;51.232;3.764;2024-03-08T06:50:45;29.48;;;24.85;;
13445;SDS011;6795;51.232;3.764;2024-03-08T06:53:15;28.63;;;24.92;;
13445;SDS011;6795;51.232;3.764;2024-03-08T06:55:49;27.20;;;24.35;;
13445;SDS011;6795;51.232;3.764;2024-03-08T06:58:17;28.98;;;25.83;;
13445;SDS011;6795;51.232;3.764;2024-03-08T07:00:46;28.63;;;25.48;;
13445;SDS011;6795;51.232;3.764;2024-03-08T07:03:18;26.10;;;22.52;;
13445;SDS011;6795;51.232;3.764;2024-03-08T07:05:50;29.60;;;23.77;;
13445;SDS011;6795;51.232;3.764;2024-03-08T07:08:19;27.08;;;24.15;;
13445;SDS011;6795;51.232;3.764;2024-03-08T07:10:50;25.40;;;21.38;;
13445;SDS011;6795;51.232;3.764;2024-03-08T07:13:20;27.35;;;23.63;;
13445;SDS011;6795;51.232;3.764;2024-03-08T07:15:48;27.13;;;24.23;;
13445;SDS011;6795;51.232;3.764;2024-03-08T07:18:19;26.67;;;23.27;;
13445;SDS011;6795;51.232;3.764;2024-03-08T07:20:50;27.30;;;23.75;;
13445;SDS011;6795;51.232;3.764;2024-03-08T07:23:18;26.48;;;22.83;;
13445;SDS011;6795;51.232;3.764;2024-03-08T07:26:01;25.95;;;23.10;;
13445;SDS011;6795;51.232;3.764;2024-03-08T07:28:30;27.10;;;23.63;;
13445;SDS011;6795;51.232;3.764;2024-03-08T07:30:59;28.02;;;23.00;;
13445;SDS011;6795;51.232;3.764;2024-03-08T07:33:44;26.60;;;23.45;;
13445;SDS011;6795;51.232;3.764;2024-03-08T07:36:14;24.88;;;22.23;;
13445;SDS011;6795;51.232;3.764;2024-03-08T07:38:42;28.92;;;22.05;;
13445;SDS011;6795;51.232;3.764;2024-03-08T07:41:14;28.35;;;21.88;;
13445;SDS011;6795;51.232;3.764;2024-03-08T07:43:43;29.45;;;23.42;;
13445;SDS011;6795;51.232;3.764;2024-03-08T07:46:11;27.08;;;19.70;;
13445;SDS011;6795;51.232;3.764;2024-03-08T07:48:44;25.20;;;21.73;;
13445;SDS011;6795;51.232;3.764;2024-03-08T07:51:16;26.52;;;21.95;;
13445;SDS011;6795;51.232;3.764;2024-03-08T07:53:45;29.75;;;23.58;;
13445;SDS011;6795;51.232;3.764;2024-03-08T07:56:14;29.10;;;21.90;;
13445;SDS011;6795;51.232;3.764;2024-03-08T07:58:44;29.67;;;21.58;;
13445;SDS011;6795;51.232;3.764;2024-03-08T08:01:15;23.98;;;16.75;;
13445;SDS011;6795;51.232;3.764;2024-03-08T08:03:44;27.15;;;21.15;;
13445;SDS011;6795;51.232;3.764;2024-03-08T08:06:15;27.63;;;21.80;;
13445;SDS011;6795;51.232;3.764;2024-03-08T08:08:48;25.00;;;21.25;;
13445;SDS011;6795;51.232;3.764;2024-03-08T08:11:16;23.77;;;20.20;;
13445;SDS011;6795;51.232;3.764;2024-03-08T08:13:45;30.23;;;20.58;;
13445;SDS011;6795;51.232;3.764;2024-03-08T08:16:14;28.17;;;20.77;;
13445;SDS011;6795;51.232;3.764;2024-03-08T08:18:42;26.10;;;21.20;;
13445;SDS011;6795;51.232;3.764;2024-03-08T08:21:12;26.52;;;20.13;;
13445;SDS011;6795;51.232;3.764;2024-03-08T08:23:42;24.15;;;20.27;;
13445;SDS011;6795;51.232;3.764;2024-03-08T08:26:11;26.58;;;16.95;;
13445;SDS011;6795;51.232;3.764;2024-03-08T08:28:39;24.83;;;18.85;;
13445;SDS011;6795;51.232;3.764;2024-03-08T08:31:10;21.77;;;16.20;;
13445;SDS011;6795;51.232;3.764;2024-03-08T08:33:38;27.13;;;18.88;;
13445;SDS011;6795;51.232;3.764;2024-03-08T08:36:07;28.58;;;19.20;;
13445;SDS011;6795;51.232;3.764;2024-03-08T08:38:36;23.27;;;15.30;;
13445;SDS011;6795;51.232;3.764;2024-03-08T08:41:06;27.55;;;17.40;;
13445;SDS011;6795;51.232;3.764;2024-03-08T08:43:34;24.40;;;17.95;;
13445;SDS011;6795;51.232;3.764;2024-03-08T08:46:12;24.63;;;16.10;;
13445;SDS011;6795;51.232;3.764;2024-03-08T08:48:41;23.33;;;17.58;;
13445;SDS011;6795;51.232;3.764;2024-03-08T08:51:11;28.45;;;17.90;;
13445;SDS011;6795;51.232;3.764;2024-03-08T08:53:40;23.85;;;17.00;;
13445;SDS011;6795;51.232;3.764;2024-03-08T08:56:11;25.67;;;16.08;;
13445;SDS011;6795;51.232;3.764;2024-03-08T08:58:39;25.33;;;16.45;;
13445;SDS011;6795;51.232;3.764;2024-03-08T09:01:09;24.23;;;16.25;;
13445;SDS011;6795;51.232;3.764;2024-03-08T09:03:38;21.05;;;15.93;;
13445;SDS011;6795;51.232;3.764;2024-03-08T09:06:07;27.38;;;16.60;;
13445;SDS011;6795;51.232;3.764;2024-03-08T09:08:36;21.10;;;15.38;;
13445;SDS011;6795;51.232;3.764;2024-03-08T09:11:05;25.88;;;16.10;;
13445;SDS011;6795;51.232;3.764;2024-03-08T09:13:36;22.48;;;15.27;;
13445;SDS011;6795;51.232;3.764;2024-03-08T09:16:04;23.75;;;16.05;;
13445;SDS011;6795;51.232;3.764;2024-03-08T09:18:33;25.23;;;16.55;;
13445;SDS011;6795;51.232;3.764;2024-03-08T09:21:01;24.48;;;15.07;;
13445;SDS011;6795;51.232;3.764;2024-03-08T09:23:31;20.85;;;13.20;;
13445;SDS011;6795;51.232;3.764;2024-03-08T09:26:00;23.00;;;16.58;;
13445;SDS011;6795;51.232;3.764;2024-03-08T09:28:33;26.10;;;16.95;;
13445;SDS011;6795;51.232;3.764;2024-03-08T09:31:05;29.13;;;16.05;;
13445;SDS011;6795;51.232;3.764;2024-03-08T09:33:33;17.77;;;11.95;;
13445;SDS011;6795;51.232;3.764;2024-03-08T09:36:02;23.67;;;15.88;;
13445;SDS011;6795;51.232;3.764;2024-03-08T09:38:31;21.40;;;14.90;;
13445;SDS011;6795;51.232;3.764;2024-03-08T09:41:01;20.92;;;15.20;;
13445;SDS011;6795;51.232;3.764;2024-03-08T09:43:30;20.38;;;14.52;;
13445;SDS011;6795;51.232;3.764;2024-03-08T09:46:00;18.52;;;13.75;;
13445;SDS011;6795;51.232;3.764;2024-03-08T09:48:30;21.00;;;13.90;;
13445;SDS011;6795;51.232;3.764;2024-03-08T09:50:59;23.83;;;13.57;;
13445;SDS011;6795;51.232;3.764;2024-03-08T09:53:28;19.95;;;13.68;;
13445;SDS011;6795;51.232;3.764;2024-03-08T09:55:57;18.00;;;13.00;;
13445;SDS011;6795;51.232;3.764;2024-03-08T09:58:26;19.05;;;14.13;;
13445;SDS011;6795;51.232;3.764;2024-03-08T10:01:20;18.23;;;13.85;;
13445;SDS011;6795;51.232;3.764;2024-03-08T10:03:49;19.83;;;14.60;;
13445;SDS011;6795;51.232;3.764;2024-03-08T10:06:22;19.95;;;11.95;;
13445;SDS011;6795;51.232;3.764;2024-03-08T10:08:51;23.90;;;15.45;;
13445;SDS011;6795;51.232;3.764;2024-03-08T10:11:23;24.27;;;14.13;;
13445;SDS011;6795;51.232;3.764;2024-03-08T10:13:53;19.58;;;14.93;;
13445;SDS011;6795;51.232;3.764;2024-03-08T10:16:25;31.40;;;15.32;;
13445;SDS011;6795;51.232;3.764;2024-03-08T10:18:56;20.10;;;16.83;;
13445;SDS011;6795;51.232;3.764;2024-03-08T10:21:24;18.80;;;14.98;;
13445;SDS011;6795;51.232;3.764;2024-03-08T10:23:53;19.88;;;14.60;;
13445;SDS011;6795;51.232;3.764;2024-03-08T10:26:21;16.20;;;12.65;;
13445;SDS011;6795;51.232;3.764;2024-03-08T10:28:50;13.80;;;11.63;;
13445;SDS011;6795;51.232;3.764;2024-03-08T10:31:20;17.90;;;13.45;;
13445;SDS011;6795;51.232;3.764;2024-03-08T10:33:50;20.17;;;15.43;;
13445;SDS011;6795;51.232;3.764;2024-03-08T10:36:18;21.75;;;13.23;;
13445;SDS011;6795;51.232;3.764;2024-03-08T10:38:47;15.57;;;10.82;;
13445;SDS011;6795;51.232;3.764;2024-03-08T10:41:20;12.80;;;9.93;;
13445;SDS011;6795;51.232;3.764;2024-03-08T10:44:00;20.80;;;12.20;;
13445;SDS011;6795;51.232;3.764;2024-03-08T10:46:42;17.73;;;13.45;;
13445;SDS011;6795;51.232;3.764;2024-03-08T10:49:25;15.80;;;11.50;;
13445;SDS011;6795;51.232;3.764;2024-03-08T10:51:57;16.98;;;11.68;;
13445;SDS011;6795;51.232;3.764;2024-03-08T10:54:28;17.75;;;12.60;;
13445;SDS011;6795;51.232;3.764;2024-03-08T10:56:59;16.75;;;12.38;;
13445;SDS011;6795;51.232;3.764;2024-03-08T10:59:32;15.98;;;10.68;;
13445;SDS011;6795;51.232;3.764;2024-03-08T11:02:01;19.88;;;13.27;;
13445;SDS011;6795;51.232;3.764;2024-03-08T11:04:32;19.63;;;12.98;;
13445;SDS011;6795;51.232;3.764;2024-03-08T11:07:01;16.98;;;11.13;;
13445;SDS011;6795;51.232;3.764;2024-03-08T11:09:33;15.68;;;12.50;;
13445;SDS011;6795;51.232;3.764;2024-03-08T11:12:24;18.10;;;12.55;;
13445;SDS011;6795;51.232;3.764;2024-03-08T11:14:56;14.85;;;11.05;;
13445;SDS011;6795;51.232;3.764;2024-03-08T11:17:41;16.73;;;12.55;;
13445;SDS011;6795;51.232;3.764;2024-03-08T11:20:15;18.17;;;12.05;;
13445;SDS011;6795;51.232;3.764;2024-03-08T11:22:47;15.32;;;12.52;;
13445;SDS011;6795;51.232;3.764;2024-03-08T11:28:14;18.98;;;11.80;;
13445;SDS011;6795;51.232;3.764;2024-03-08T11:31:21;14.20;;;10.63;;
13445;SDS011;6795;51.232;3.764;2024-03-08T11:33:52;16.10;;;12.50;;
13445;SDS011;6795;51.232;3.764;2024-03-08T11:36:25;15.20;;;12.23;;
13445;SDS011;6795;51.232;3.764;2024-03-08T11:38:53;17.80;;;12.75;;
13445;SDS011;6795;51.232;3.764;2024-03-08T11:41:25;18.58;;;12.60;;
13445;SDS011;6795;51.232;3.764;2024-03-08T11:44:04;16.92;;;12.73;;
13445;SDS011;6795;51.232;3.764;2024-03-08T11:46:33;15.50;;;12.60;;
13445;SDS011;6795;51.232;3.764;2024-03-08T11:49:02;16.10;;;12.23;;
13445;SDS011;6795;51.232;3.764;2024-03-08T11:51:36;14.45;;;12.55;;
13445;SDS011;6795;51.232;3.764;2024-03-08T11:54:05;17.83;;;12.77;;
13445;SDS011;6795;51.232;3.764;2024-03-08T11:56:39;16.15;;;13.00;;
13445;SDS011;6795;51.232;3.764;2024-03-08T11:59:10;16.02;;;13.82;;
13445;SDS011;6795;51.232;3.764;2024-03-08T12:01:40;14.60;;;12.82;;
13445;SDS011;6795;51.232;3.764;2024-03-08T12:04:11;13.38;;;10.30;;
13445;SDS011;6795;51.232;3.764;2024-03-08T12:06:42;12.57;;;11.00;;
13445;SDS011;6795;51.232;3.764;2024-03-08T12:09:14;14.77;;;12.57;;
13445;SDS011;6795;51.232;3.764;2024-03-08T12:11:47;15.48;;;12.60;;
13445;SDS011;6795;51.232;3.764;2024-03-08T12:14:15;15.27;;;9.95;;
13445;SDS011;6795;51.232;3.764;2024-03-08T12:16:44;14.85;;;12.35;;
13445;SDS011;6795;51.232;3.764;2024-03-08T12:19:16;20.52;;;11.68;;
13445;SDS011;6795;51.232;3.764;2024-03-08T12:21:46;13.07;;;11.43;;
13445;SDS011;6795;51.232;3.764;2024-03-08T12:24:16;13.10;;;10.68;;
13445;SDS011;6795;51.232;3.764;2024-03-08T12:26:46;15.27;;;12.57;;
13445;SDS011;6795;51.232;3.764;2024-03-08T12:29:16;14.05;;;12.27;;
13445;SDS011;6795;51.232;3.764;2024-03-08T12:31:47;15.30;;;12.20;;
13445;SDS011;6795;51.232;3.764;2024-03-08T12:34:19;15.50;;;12.77;;
13445;SDS011;6795;51.232;3.764;2024-03-08T12:36:50;15.32;;;10.45;;
13445;SDS011;6795;51.232;3.764;2024-03-08T12:39:21;17.02;;;12.00;;
13445;SDS011;6795;51.232;3.764;2024-03-08T12:41:54;13.95;;;11.77;;
13445;SDS011;6795;51.232;3.764;2024-03-08T12:44:24;14.38;;;11.48;;
13445;SDS011;6795;51.232;3.764;2024-03-08T12:46:52;13.93;;;11.38;;
13445;SDS011;6795;51.232;3.764;2024-03-08T12:49:21;13.88;;;11.20;;
13445;SDS011;6795;51.232;3.764;2024-03-08T12:51:51;14.63;;;11.82;;
13445;SDS011;6795;51.232;3.764;2024-03-08T12:54:22;13.02;;;11.55;;
13445;SDS011;6795;51.232;3.764;2024-03-08T12:56:53;13.65;;;11.93;;
13445;SDS011;6795;51.232;3.764;2024-03-08T12:59:22;15.00;;;11.90;;
13445;SDS011;6795;51.232;3.764;2024-03-08T13:01:51;16.42;;;11.85;;
13445;SDS011;6795;51.232;3.764;2024-03-08T13:04:21;15.50;;;11.48;;
13445;SDS011;6795;51.232;3.764;2024-03-08T13:06:49;14.20;;;12.13;;
13445;SDS011;6795;51.232;3.764;2024-03-08T13:09:21;16.27;;;12.02;;
13445;SDS011;6795;51.232;3.764;2024-03-08T13:11:50;17.08;;;12.57;;
13445;SDS011;6795;51.232;3.764;2024-03-08T13:14:21;15.40;;;12.52;;
13445;SDS011;6795;51.232;3.764;2024-03-08T13:16:50;14.93;;;12.57;;
13445;SDS011;6795;51.232;3.764;2024-03-08T13:19:19;15.00;;;12.20;;
13445;SDS011;6795;51.232;3.764;2024-03-08T13:21:48;14.43;;;12.02;;
13445;SDS011;6795;51.232;3.764;2024-03-08T13:24:19;13.10;;;11.63;;
13445;SDS011;6795;51.232;3.764;2024-03-08T13:26:48;13.90;;;10.95;;
13445;SDS011;6795;51.232;3.764;2024-03-08T13:29:17;15.43;;;13.63;;
13445;SDS011;6795;51.232;3.764;2024-03-08T13:31:47;14.88;;;12.07;;
13445;SDS011;6795;51.232;3.764;2024-03-08T13:34:19;14.95;;;11.98;;
13445;SDS011;6795;51.232;3.764;2024-03-08T13:36:54;12.38;;;10.88;;
13445;SDS011;6795;51.232;3.764;2024-03-08T13:39:28;13.30;;;10.82;;
13445;SDS011;6795;51.232;3.764;2024-03-08T13:42:03;12.30;;;10.82;;
13445;SDS011;6795;51.232;3.764;2024-03-08T13:44:36;13.80;;;11.48;;
13445;SDS011;6795;51.232;3.764;2024-03-08T13:47:04;16.38;;;11.20;;
13445;SDS011;6795;51.232;3.764;2024-03-08T13:49:34;14.50;;;11.68;;
13445;SDS011;6795;51.232;3.764;2024-03-08T13:52:03;19.05;;;11.27;;
13445;SDS011;6795;51.232;3.764;2024-03-08T13:54:34;14.20;;;11.15;;
13445;SDS011;6795;51.232;3.764;2024-03-08T13:57:02;14.98;;;11.93;;
13445;SDS011;6795;51.232;3.764;2024-03-08T13:59:31;14.60;;;10.75;;
13445;SDS011;6795;51.232;3.764;2024-03-08T14:02:01;12.38;;;10.57;;
13445;SDS011;6795;51.232;3.764;2024-03-08T14:04:31;16.88;;;11.35;;
13445;SDS011;6795;51.232;3.764;2024-03-08T14:07:01;13.60;;;11.35;;
13445;SDS011;6795;51.232;3.764;2024-03-08T14:09:31;14.88;;;11.38;;
13445;SDS011;6795;51.232;3.764;2024-03-08T14:12:05;18.30;;;12.90;;
13445;SDS011;6795;51.232;3.764;2024-03-08T14:14:34;13.40;;;10.18;;
13445;SDS011;6795;51.232;3.764;2024-03-08T14:17:03;14.02;;;11.45;;
13445;SDS011;6795;51.232;3.764;2024-03-08T14:19:36;16.42;;;12.63;;
13445;SDS011;6795;51.232;3.764;2024-03-08T14:22:06;18.73;;;13.30;;
13445;SDS011;6795;51.232;3.764;2024-03-08T14:24:39;18.90;;;13.02;;
13445;SDS011;6795;51.232;3.764;2024-03-08T14:27:10;15.73;;;10.63;;
13445;SDS011;6795;51.232;3.764;2024-03-08T14:29:38;16.73;;;12.63;;
13445;SDS011;6795;51.232;3.764;2024-03-08T14:32:07;15.75;;;12.38;;
13445;SDS011;6795;51.232;3.764;2024-03-08T14:34:36;12.65;;;11.27;;
13445;SDS011;6795;51.232;3.764;2024-03-08T14:37:06;13.70;;;11.27;;
13445;SDS011;6795;51.232;3.764;2024-03-08T14:39:38;13.77;;;11.90;;
13445;SDS011;6795;51.232;3.764;2024-03-08T14:42:06;17.13;;;13.07;;
13445;SDS011;6795;51.232;3.764;2024-03-08T14:44:41;15.05;;;12.55;;
13445;SDS011;6795;51.232;3.764;2024-03-08T14:47:14;14.20;;;11.30;;
13445;SDS011;6795;51.232;3.764;2024-03-08T14:49:43;14.82;;;12.68;;
13445;SDS011;6795;51.232;3.764;2024-03-08T14:52:11;13.23;;;11.40;;
13445;SDS011;6795;51.232;3.764;2024-03-08T14:55:08;15.13;;;11.40;;
13445;SDS011;6795;51.232;3.764;2024-03-08T14:57:41;12.90;;;10.45;;
13445;SDS011;6795;51.232;3.764;2024-03-08T15:00:12;16.27;;;12.98;;